createdAt,value
2018-07-21T00:02:04.326Z,77.00
2018-07-21T00:04:33.656Z,78.00
2018-07-21T00:07:03.275Z,78.90
2018-07-21T00:09:33.739Z,79.70
2018-07-21T00:12:03.436Z,81.50
2018-07-21T00:14:33.258Z,82.20
2018-07-21T00:17:03.162Z,83.10
2018-07-21T00:19:33.556Z,84.00
2018-07-21T00:22:03.014Z,84.80
2018-07-21T00:24:32.622Z,85.50
2018-07-21T00:27:02.916Z,86.10
2018-07-21T00:29:32.908Z,86.80
2018-07-21T00:32:03.202Z,87.20
2018-07-21T00:34:33.615Z,87.80
2018-07-21T00:37:04.229Z,87.40
2018-07-21T00:39:34.207Z,88.20
2018-07-21T00:42:06.094Z,86.90
2018-07-21T00:44:36.270Z,87.20
2018-07-21T00:47:06.258Z,86.40
2018-07-21T00:49:36.989Z,87.80
2018-07-21T00:52:07.056Z,88.90
2018-07-21T00:54:36.954Z,89.20
2018-07-21T00:57:06.849Z,89.80
2018-07-21T00:59:37.267Z,90.20
2018-07-21T01:02:07.660Z,90.80
2018-07-21T01:04:37.966Z,91.20
2018-07-21T01:07:08.897Z,91.40
2018-07-21T01:09:39.390Z,91.80
2018-07-21T01:12:10.187Z,92.10
2018-07-21T01:14:40.303Z,92.10
2018-07-21T01:17:10.200Z,92.30
2018-07-21T01:19:40.474Z,92.60
2018-07-21T01:22:11.031Z,92.50
2018-07-21T01:24:42.459Z,92.80
2018-07-21T01:27:12.343Z,92.90
2018-07-21T01:29:42.647Z,93.80
2018-07-21T01:32:12.961Z,92.90
2018-07-21T01:34:43.342Z,92.90
2018-07-21T01:37:14.387Z,92.90
2018-07-21T01:39:43.914Z,93.20
2018-07-21T01:42:14.330Z,93.10
2018-07-21T01:44:44.246Z,93.30
2018-07-21T01:47:15.050Z,93.40
2018-07-21T01:49:45.060Z,93.40
2018-07-21T01:52:14.510Z,93.40
2018-07-21T01:54:44.615Z,93.10
2018-07-21T01:57:14.082Z,93.30
2018-07-21T01:59:44.474Z,93.60
2018-07-21T02:02:14.410Z,93.60
2018-07-21T02:04:43.975Z,93.90
2018-07-21T02:07:13.164Z,93.70
2018-07-21T02:09:43.567Z,94.20
2018-07-21T02:12:14.550Z,93.50
2018-07-21T02:14:44.990Z,93.90
2018-07-21T02:17:14.870Z,93.30
2018-07-21T02:19:44.705Z,93.60
2018-07-21T02:22:15.389Z,93.90
2018-07-21T02:24:45.585Z,93.00
2018-07-21T02:27:15.762Z,93.30
2018-07-21T02:29:45.474Z,93.70
2018-07-21T02:32:15.978Z,93.60
2018-07-21T02:34:46.184Z,94.00
2018-07-21T02:37:16.191Z,93.80
2018-07-21T02:39:46.222Z,94.20
2018-07-21T02:42:16.685Z,94.40
2018-07-21T02:44:46.466Z,94.30
2018-07-21T02:47:16.453Z,94.00
2018-07-21T02:49:46.545Z,94.30
2018-07-21T02:52:16.952Z,94.10
2018-07-21T02:54:47.357Z,94.60
2018-07-21T02:57:16.961Z,93.70
2018-07-21T02:59:47.215Z,94.00
2018-07-21T03:02:17.948Z,94.10
2018-07-21T03:04:47.372Z,94.00
2018-07-21T03:07:18.160Z,93.80
2018-07-21T03:09:48.320Z,94.20
2018-07-21T03:12:18.263Z,94.10
2018-07-21T03:14:48.398Z,94.10
2018-07-21T03:17:18.943Z,94.40
2018-07-21T03:19:49.013Z,94.80
2018-07-21T03:22:19.347Z,95.00
2018-07-21T03:24:49.290Z,94.90
2018-07-21T03:29:49.591Z,95.10
2018-07-21T03:32:19.790Z,95.70
2018-07-21T03:34:49.776Z,95.90
2018-07-21T03:37:20.002Z,96.00
2018-07-21T03:39:50.027Z,96.00
2018-07-21T03:42:20.031Z,96.50
2018-07-21T03:44:49.687Z,96.20
2018-07-21T03:47:19.537Z,96.60
2018-07-21T03:49:49.153Z,96.80
2018-07-21T03:52:19.089Z,96.30
2018-07-21T03:57:17.042Z,96.20
2018-07-21T04:02:16.183Z,96.00
2018-07-21T04:04:46.185Z,96.70
2018-07-21T04:07:16.070Z,96.70
2018-07-21T04:09:45.467Z,96.50
2018-07-21T04:12:16.138Z,96.30
2018-07-21T04:14:46.078Z,96.60
2018-07-21T04:17:23.506Z,97.00
2018-07-21T04:19:54.207Z,97.30
2018-07-21T04:22:24.667Z,96.90
2018-07-21T04:24:54.959Z,97.10
2018-07-21T04:27:26.202Z,97.20
2018-07-21T04:29:58.070Z,97.40
2018-07-21T04:32:27.665Z,97.10
2018-07-21T04:34:57.581Z,97.40
2018-07-21T04:37:27.962Z,98.10
2018-07-21T04:39:57.746Z,98.20
2018-07-21T04:42:27.998Z,98.20
2018-07-21T04:44:57.550Z,98.60
2018-07-21T04:49:56.939Z,98.40
2018-07-21T04:52:26.410Z,98.30
2018-07-21T04:54:56.077Z,98.80
2018-07-21T04:57:26.446Z,98.60
2018-07-21T04:59:56.971Z,98.60
2018-07-21T05:02:28.082Z,97.90
2018-07-21T05:04:58.116Z,97.60
2018-07-21T05:07:28.150Z,97.80
2018-07-21T05:09:57.846Z,97.70
2018-07-21T05:12:28.050Z,97.50
2018-07-21T05:14:58.068Z,97.60
2018-07-21T05:17:29.197Z,97.60
2018-07-21T05:20:00.090Z,97.90
2018-07-21T05:22:29.958Z,97.60
2018-07-21T05:24:59.726Z,97.90
2018-07-21T05:27:30.278Z,97.80
2018-07-21T05:30:00.184Z,97.10
2018-07-21T05:32:30.278Z,96.90
2018-07-21T05:35:00.498Z,96.40
2018-07-21T05:37:29.987Z,96.70
2018-07-21T05:40:00.334Z,96.10
2018-07-21T05:42:30.230Z,95.30
2018-07-21T05:45:00.706Z,95.60
2018-07-21T05:47:30.259Z,95.20
2018-07-21T05:50:01.059Z,95.00
2018-07-21T05:52:31.479Z,95.10
2018-07-21T05:55:01.223Z,95.40
2018-07-21T05:57:31.002Z,95.10
2018-07-21T06:00:01.686Z,95.30
2018-07-21T06:02:31.916Z,95.60
2018-07-21T06:05:01.736Z,95.90
2018-07-21T06:07:31.844Z,94.10
2018-07-21T06:10:01.846Z,93.70
2018-07-21T06:12:31.639Z,94.20
2018-07-21T06:15:02.074Z,94.50
2018-07-21T06:17:32.011Z,94.60
2018-07-21T06:20:02.050Z,94.10
2018-07-21T06:22:33.890Z,93.90
2018-07-21T06:25:04.967Z,94.20
2018-07-21T06:27:35.403Z,94.10
2018-07-21T06:30:06.043Z,94.10
2018-07-21T06:32:35.783Z,94.00
2018-07-21T06:35:06.607Z,94.40
2018-07-21T06:37:37.783Z,94.50
2018-07-21T06:40:07.860Z,94.50
2018-07-21T06:42:37.894Z,94.10
2018-07-21T06:45:08.271Z,93.80
2018-07-21T06:47:38.698Z,94.20
2018-07-21T06:50:09.163Z,94.60
2018-07-21T06:52:40.417Z,92.70
2018-07-21T06:55:12.215Z,93.00
2018-07-21T06:57:44.082Z,91.80
2018-07-21T07:00:14.807Z,91.20
2018-07-21T07:02:45.570Z,90.70
2018-07-21T07:05:16.088Z,91.00
2018-07-21T07:07:46.750Z,91.80
2018-07-21T07:10:16.699Z,91.40
2018-07-21T07:12:45.831Z,91.90
2018-07-21T07:15:16.806Z,91.30
2018-07-21T07:17:46.310Z,91.60
2018-07-21T07:20:16.062Z,92.10
2018-07-21T07:22:45.402Z,92.30
2018-07-21T07:25:15.378Z,91.20
2018-07-21T07:27:45.193Z,90.80
2018-07-21T07:30:15.275Z,90.50
2018-07-21T07:32:44.752Z,87.90
2018-07-21T07:35:14.693Z,88.70
2018-07-21T07:37:45.875Z,89.40
2018-07-21T07:40:15.590Z,88.70
2018-07-21T07:42:45.123Z,89.00
2018-07-21T07:45:14.837Z,90.10
2018-07-21T07:47:44.615Z,90.40
2018-07-21T07:50:15.282Z,89.10
2018-07-21T07:52:45.385Z,87.70
2018-07-21T07:55:14.891Z,87.90
2018-07-21T07:57:44.542Z,84.30
2018-07-21T08:00:14.619Z,85.70
2018-07-21T08:02:44.469Z,83.80
2018-07-21T08:05:14.202Z,81.90
2018-07-21T08:10:13.466Z,77.80
2018-07-21T08:12:43.126Z,78.70
2018-07-21T08:15:12.587Z,77.60
2018-07-21T08:17:42.862Z,77.70
2018-07-21T08:20:12.942Z,78.70
2018-07-21T08:22:42.339Z,77.10
2018-07-21T08:25:12.408Z,77.90
2018-07-21T08:27:42.802Z,77.30
2018-07-21T08:30:13.024Z,77.40
2018-07-21T08:32:43.035Z,76.60
2018-07-21T08:35:13.375Z,77.50
2018-07-21T08:37:42.862Z,74.60
2018-07-21T08:40:12.043Z,74.10
2018-07-21T08:42:41.762Z,72.40
2018-07-21T08:45:12.923Z,72.40
2018-07-21T08:47:44.131Z,72.90
2018-07-21T08:50:14.786Z,71.30
2018-07-21T08:52:45.269Z,72.10
2018-07-21T08:55:15.152Z,74.60
2018-07-21T08:57:45.302Z,76.50
2018-07-21T09:00:14.918Z,77.20
2018-07-21T09:02:44.199Z,74.80
2018-07-21T09:07:43.206Z,74.00
2018-07-21T09:10:13.344Z,75.40
2018-07-21T09:12:44.040Z,74.70
2018-07-21T09:15:13.765Z,75.60
2018-07-21T09:17:44.207Z,71.80
2018-07-21T09:20:14.278Z,70.80
2018-07-21T09:22:44.117Z,71.60
2018-07-21T09:25:14.646Z,70.50
2018-07-21T09:27:44.250Z,70.50
2018-07-21T09:30:14.591Z,70.60
2018-07-21T09:32:44.198Z,70.70
2018-07-21T09:35:14.254Z,70.40
2018-07-21T09:37:44.151Z,70.70
2018-07-21T09:42:44.023Z,71.90
2018-07-21T09:45:13.451Z,70.60
2018-07-21T09:47:43.466Z,68.70
2018-07-21T09:50:13.465Z,68.30
2018-07-21T09:52:43.203Z,68.40
2018-07-21T09:55:13.926Z,70.50
2018-07-21T09:57:44.473Z,68.30
2018-07-21T10:00:18.116Z,66.60
2018-07-21T10:05:17.345Z,64.70
2018-07-21T10:07:46.919Z,62.90
2018-07-21T10:10:16.947Z,62.20
2018-07-21T10:12:47.263Z,63.10
2018-07-21T10:15:17.899Z,59.60
2018-07-21T10:17:48.494Z,60.80
2018-07-21T10:20:18.234Z,61.30
2018-07-21T10:22:47.999Z,61.50
2018-07-21T10:25:23.531Z,63.60
2018-07-21T10:27:58.442Z,63.80
2018-07-21T10:30:28.417Z,64.30
2018-07-21T10:32:58.196Z,63.30
2018-07-21T10:35:27.804Z,63.40
2018-07-21T10:37:58.119Z,64.40
2018-07-21T10:40:27.668Z,62.30
2018-07-21T10:42:58.402Z,61.10
2018-07-21T10:45:29.636Z,59.10
2018-07-21T10:47:59.676Z,61.10
2018-07-21T10:52:59.111Z,58.60
2018-07-21T10:55:29.194Z,59.30
2018-07-21T10:57:58.807Z,62.60
2018-07-21T11:00:28.379Z,59.80
2018-07-21T11:02:57.719Z,57.10
2018-07-21T11:05:28.963Z,56.50
2018-07-21T11:07:58.547Z,57.10
2018-07-21T11:10:28.618Z,56.70
2018-07-21T11:12:58.840Z,54.70
2018-07-21T11:15:29.100Z,53.80
2018-07-21T11:18:00.164Z,54.10
2018-07-21T11:20:29.914Z,54.60
2018-07-21T11:22:59.072Z,56.40
2018-07-21T11:25:29.603Z,56.20
2018-07-21T11:27:59.081Z,54.20
2018-07-21T11:30:28.589Z,54.80
2018-07-21T11:32:58.326Z,52.00
2018-07-21T11:37:58.254Z,51.90
2018-07-21T11:40:27.460Z,53.90
2018-07-21T11:42:57.094Z,54.60
2018-07-21T11:45:26.283Z,52.40
2018-07-21T11:47:56.375Z,53.20
2018-07-21T11:50:27.913Z,54.30
2018-07-21T11:52:58.654Z,54.70
2018-07-21T11:55:28.633Z,52.00
2018-07-21T11:57:58.206Z,52.30
2018-07-21T12:00:28.886Z,52.90
2018-07-21T12:02:59.540Z,52.30
2018-07-21T12:05:29.123Z,52.50
2018-07-21T12:07:58.918Z,51.80
2018-07-21T12:10:28.498Z,52.30
2018-07-21T12:12:58.078Z,53.60
2018-07-21T12:15:28.018Z,51.70
2018-07-21T12:17:58.319Z,52.30
2018-07-21T12:20:27.559Z,51.80
2018-07-21T12:22:57.164Z,52.70
2018-07-21T12:25:27.033Z,51.80
2018-07-21T12:27:56.491Z,49.90
2018-07-21T12:30:26.995Z,50.70
2018-07-21T12:32:56.771Z,49.40
2018-07-21T12:35:26.611Z,49.10
2018-07-21T12:37:57.387Z,49.50
2018-07-21T12:40:26.961Z,50.30
2018-07-21T12:42:56.945Z,48.90
2018-07-21T12:45:27.026Z,49.40
2018-07-21T12:47:56.960Z,49.90
2018-07-21T12:50:26.910Z,49.00
2018-07-21T12:52:57.422Z,49.20
2018-07-21T12:55:27.304Z,49.10
2018-07-21T12:57:59.047Z,49.70
2018-07-21T13:00:28.398Z,49.20
2018-07-21T13:02:58.492Z,49.40
2018-07-21T13:05:28.047Z,49.90
2018-07-21T13:07:58.599Z,49.10
2018-07-21T13:10:29.050Z,48.00
2018-07-21T13:12:58.760Z,48.00
2018-07-21T13:15:28.183Z,48.50
2018-07-21T13:17:58.180Z,48.80
2018-07-21T13:20:27.992Z,49.70
2018-07-21T13:22:59.210Z,49.00
2018-07-21T13:25:29.186Z,48.60
2018-07-21T13:28:00.377Z,49.10
2018-07-21T13:30:30.674Z,49.40
2018-07-21T13:33:00.847Z,49.50
2018-07-21T13:35:31.047Z,48.70
2018-07-21T13:38:01.381Z,48.80
2018-07-21T13:40:31.299Z,49.00
2018-07-21T13:43:03.107Z,48.30
2018-07-21T13:45:32.298Z,49.10
2018-07-21T13:48:01.741Z,48.80
2018-07-21T13:50:33.278Z,48.80
2018-07-21T13:53:02.552Z,47.70
2018-07-21T13:55:33.670Z,48.40
2018-07-21T13:58:04.210Z,47.50
2018-07-21T14:00:34.143Z,48.20
2018-07-21T14:03:04.607Z,47.90
2018-07-21T14:05:34.811Z,47.90
2018-07-21T14:08:04.686Z,47.70
2018-07-21T14:10:35.011Z,47.40
2018-07-21T14:13:06.198Z,47.40
2018-07-21T14:15:36.374Z,47.00
2018-07-21T14:18:07.211Z,46.70
2018-07-21T14:20:37.132Z,47.20
2018-07-21T14:23:06.950Z,46.40
2018-07-21T14:25:36.650Z,46.60
2018-07-21T14:28:06.262Z,47.60
2018-07-21T14:30:37.699Z,47.50
2018-07-21T14:33:07.623Z,47.80
2018-07-21T14:35:37.491Z,48.70
2018-07-21T14:38:07.779Z,48.40
2018-07-21T14:40:37.688Z,49.00
2018-07-21T14:43:07.546Z,47.70
2018-07-21T14:45:38.046Z,48.60
2018-07-21T14:48:07.924Z,49.10
2018-07-21T14:50:38.865Z,47.90
2018-07-21T14:53:08.647Z,48.50
2018-07-21T14:55:37.843Z,49.00
2018-07-21T14:58:07.112Z,46.70
2018-07-21T15:00:37.235Z,47.20
2018-07-21T15:03:06.814Z,47.30
2018-07-21T15:05:37.374Z,47.00
2018-07-21T15:08:07.503Z,47.60
2018-07-21T15:10:38.942Z,48.20
2018-07-21T15:13:08.487Z,48.30
2018-07-21T15:15:38.314Z,48.90
2018-07-21T15:18:07.938Z,48.50
2018-07-21T15:20:37.551Z,48.60
2018-07-21T15:23:07.307Z,49.00
2018-07-21T15:25:37.238Z,49.90
2018-07-21T15:28:07.857Z,49.00
2018-07-21T15:30:38.142Z,49.60
2018-07-21T15:33:07.958Z,49.60
2018-07-21T15:35:38.757Z,49.60
2018-07-21T15:38:09.304Z,50.00
2018-07-21T15:43:09.807Z,49.90
2018-07-21T15:45:40.173Z,50.60
2018-07-21T15:48:10.160Z,51.20
2018-07-21T15:50:39.823Z,50.60
2018-07-21T15:53:10.451Z,50.70
2018-07-21T15:55:39.866Z,49.40
2018-07-21T15:58:09.672Z,49.40
2018-07-21T16:00:38.529Z,50.00
2018-07-21T16:03:08.478Z,49.70
2018-07-21T16:05:38.182Z,49.50
2018-07-21T16:08:08.601Z,50.00
2018-07-21T16:10:39.003Z,50.10
2018-07-21T16:13:09.413Z,49.20
2018-07-21T16:15:39.183Z,49.90
2018-07-21T16:18:08.387Z,48.60
2018-07-21T16:20:38.070Z,49.20
2018-07-21T16:23:08.111Z,48.40
2018-07-21T16:28:07.153Z,48.20
2018-07-21T16:30:37.135Z,49.10
2018-07-21T16:33:07.751Z,48.70
2018-07-21T16:35:37.634Z,48.70
2018-07-21T16:38:08.458Z,49.30
2018-07-21T16:40:38.876Z,49.70
2018-07-21T16:43:08.886Z,50.30
2018-07-21T16:45:39.014Z,49.30
2018-07-21T16:48:09.238Z,49.10
2018-07-21T16:50:40.391Z,49.30
2018-07-21T16:53:10.266Z,50.00
2018-07-21T16:55:40.822Z,50.40
2018-07-21T16:58:10.962Z,49.30
2018-07-21T17:00:41.313Z,51.10
2018-07-21T17:03:11.606Z,49.30
2018-07-21T17:05:41.166Z,52.40
2018-07-21T17:08:10.619Z,53.70
2018-07-21T17:10:40.286Z,54.30
2018-07-21T17:13:12.286Z,54.80
2018-07-21T17:15:42.296Z,55.90
2018-07-21T17:23:11.934Z,56.60
2018-07-21T17:28:12.395Z,57.10
2018-07-21T17:30:42.279Z,58.90
2018-07-21T17:33:12.306Z,61.40
2018-07-21T17:35:41.742Z,62.10
2018-07-21T17:38:12.035Z,61.50
2018-07-21T17:40:43.075Z,61.30
2018-07-21T17:43:13.609Z,62.10
2018-07-21T17:45:44.182Z,63.10
2018-07-21T17:48:15.205Z,63.70
2018-07-21T17:50:45.122Z,64.40
2018-07-21T17:53:16.036Z,64.70
2018-07-21T17:55:45.881Z,66.40
2018-07-21T17:58:15.876Z,67.60
2018-07-21T18:00:45.878Z,69.30
2018-07-21T18:03:16.301Z,70.20
2018-07-21T18:05:46.382Z,72.00
2018-07-21T18:08:15.846Z,72.60
2018-07-21T18:10:45.530Z,74.10
2018-07-21T18:13:16.149Z,74.80
2018-07-21T18:15:46.209Z,75.40
2018-07-21T18:18:16.621Z,76.60
2018-07-21T18:20:46.030Z,76.10
2018-07-21T18:23:15.715Z,75.50
2018-07-21T18:25:45.059Z,76.50
2018-07-21T18:28:15.227Z,77.20
2018-07-21T18:30:44.649Z,79.00
2018-07-21T18:33:13.963Z,76.60
2018-07-21T18:35:43.246Z,76.20
2018-07-21T18:38:14.557Z,76.50
2018-07-21T18:40:44.202Z,77.50
2018-07-21T18:43:14.471Z,78.70
2018-07-21T18:48:13.882Z,78.40
2018-07-21T18:50:43.515Z,79.20
2018-07-21T18:53:13.451Z,80.10
2018-07-21T18:55:43.353Z,84.40
2018-07-21T18:58:12.839Z,86.80
2018-07-21T19:00:44.550Z,87.70
2018-07-21T19:03:15.210Z,88.70
2018-07-21T19:05:45.899Z,89.80
2018-07-21T19:08:20.755Z,90.50
2018-07-21T19:10:50.787Z,91.00
2018-07-21T19:13:20.355Z,91.80
2018-07-21T19:15:55.922Z,92.00
2018-07-21T19:18:25.850Z,92.30
2018-07-21T19:21:00.815Z,92.80
2018-07-21T19:23:30.892Z,93.10
2018-07-21T19:26:05.766Z,93.60
2018-07-21T19:28:35.669Z,93.90
2018-07-21T19:31:05.102Z,94.30
2018-07-21T19:33:35.890Z,94.80
2018-07-21T19:36:06.134Z,94.70
2018-07-21T19:38:36.436Z,95.00
2018-07-21T19:41:12.259Z,94.90
2018-07-21T19:43:42.910Z,95.10
2018-07-21T19:46:12.892Z,95.00
2018-07-21T19:48:44.110Z,95.40
2018-07-21T19:51:14.719Z,94.80
2018-07-21T19:53:46.252Z,94.50
2018-07-21T19:56:16.781Z,95.10
2018-07-21T19:58:46.962Z,95.80
2018-07-21T20:01:17.391Z,95.90
2018-07-21T20:03:47.503Z,95.60
2018-07-21T20:06:17.242Z,94.90
2018-07-21T20:08:47.141Z,95.30
2018-07-21T20:11:17.875Z,95.20
2018-07-21T20:13:47.477Z,94.40
2018-07-21T20:16:18.331Z,94.60
2018-07-21T20:18:48.866Z,93.80
2018-07-21T20:21:18.147Z,93.80
2018-07-21T20:23:47.951Z,94.00
2018-07-21T20:26:17.519Z,94.40
2018-07-21T20:28:47.835Z,93.70
2018-07-21T20:31:17.831Z,94.40
2018-07-21T20:33:47.993Z,94.10
2018-07-21T20:36:18.146Z,93.90
2018-07-21T20:38:48.062Z,94.00
2018-07-21T20:41:17.771Z,94.00
2018-07-21T20:43:47.847Z,94.90
2018-07-21T20:46:17.687Z,94.20
2018-07-21T20:48:48.130Z,94.60
2018-07-21T20:51:18.251Z,95.20
2018-07-21T20:53:49.593Z,95.00
2018-07-21T20:58:48.835Z,96.50
2018-07-21T21:01:18.020Z,97.50
2018-07-21T21:03:47.758Z,97.80
2018-07-21T21:06:19.012Z,98.20
2018-07-21T21:08:49.206Z,98.30
2018-07-21T21:11:18.899Z,98.60
2018-07-21T21:13:49.002Z,98.50
2018-07-21T21:16:18.734Z,98.30
2018-07-21T21:18:48.842Z,98.40
2018-07-21T21:21:18.819Z,98.50
2018-07-21T21:23:48.474Z,98.70
2018-07-21T21:26:18.232Z,98.70
2018-07-21T21:28:49.162Z,98.60
2018-07-21T21:31:19.566Z,98.60
2018-07-21T21:33:49.250Z,98.90
2018-07-21T21:36:21.004Z,98.70
2018-07-21T21:38:51.282Z,99.00
2018-07-21T21:41:22.417Z,98.50
2018-07-21T21:43:52.205Z,96.60
2018-07-21T21:46:21.870Z,95.50
2018-07-21T21:48:52.642Z,95.60
2018-07-21T21:53:53.320Z,95.20
2018-07-21T21:56:26.098Z,95.00
2018-07-21T21:58:56.276Z,95.00
2018-07-21T22:01:26.933Z,94.70
2018-07-21T22:03:56.649Z,94.60
2018-07-21T22:06:27.211Z,94.20
2018-07-21T22:08:57.219Z,94.50
2018-07-21T22:11:26.835Z,94.60
2018-07-21T22:13:56.814Z,94.50
2018-07-21T22:16:26.988Z,94.30
2018-07-21T22:18:57.385Z,94.60
2018-07-21T22:21:27.723Z,94.50
2018-07-21T22:23:58.486Z,94.30
2018-07-21T22:26:29.690Z,94.40
2018-07-21T22:29:00.991Z,94.70
2018-07-21T22:31:30.918Z,94.50
2018-07-21T22:34:01.054Z,94.80
2018-07-21T22:36:30.305Z,94.50
2018-07-21T22:39:00.721Z,94.60
2018-07-21T22:41:30.647Z,94.60
2018-07-21T22:49:00.524Z,94.90
2018-07-21T22:51:30.880Z,95.00
2018-07-21T22:54:01.877Z,95.30
2018-07-21T22:56:32.047Z,95.20
2018-07-21T22:59:02.501Z,95.10
2018-07-21T23:01:32.086Z,95.20
2018-07-21T23:04:01.803Z,95.50
2018-07-21T23:06:31.297Z,95.50
2018-07-21T23:09:01.703Z,95.50
2018-07-21T23:11:33.994Z,95.60
2018-07-21T23:14:04.846Z,95.70
2018-07-21T23:16:35.522Z,95.70
2018-07-21T23:19:05.016Z,95.80
2018-07-21T23:21:34.823Z,95.50
2018-07-21T23:24:05.285Z,95.80
2018-07-21T23:26:36.106Z,96.20
2018-07-21T23:29:05.947Z,95.70
2018-07-21T23:31:36.540Z,96.00
2018-07-21T23:34:06.930Z,96.10
2018-07-21T23:36:38.454Z,95.80
2018-07-21T23:39:11.065Z,96.10
2018-07-21T23:41:40.562Z,95.70
2018-07-21T23:44:09.957Z,95.80
2018-07-21T23:46:39.983Z,96.10
2018-07-21T23:49:09.757Z,95.80
2018-07-21T23:51:40.403Z,95.70
2018-07-21T23:54:11.150Z,96.10
2018-07-21T23:56:41.002Z,96.20
2018-07-21T23:59:11.984Z,96.30
